Beaver County Airport Beaver Falls US
ICAO: KBVI
IATA: BFP
Category: Medium
Scheduled Services: No

Elevation: 1253 ft
TransAlt. 18000 ft.

Airport Communications:
PITTSBURGH APP/DEP:124.75
ATIS:118.35
PITTSBURGH CLNC DEL:124.85
CTAF:120.3
GND:121.8
ALTOONA RDO:115.8
TWR:120.3

KBVI Zoom In..

Runways:

(A) RW 10 length 4501 ft width 100 ft
LOC 109.30 / hdg 101

(B) RW 28 length 4501 ft width 100 ft
LOC 109.30 / hdg 281

Location; KBVI
Day. 25 / Time. 00.47 Zulu
* Altimeter: 30.00
* Temperature: 10° c. 50°f.
* Wind from: 110° Speed 05 kn.
Dewpoint: 09° c.
Visibility: 7 Statute Miles.
Clouds: Overcast 700 ft.
Conditions: Rain.

KBVI 250047Z 11005KT 7SM RA OVC007 10/09 A3000 RMK LAST


Wind From 110°
Speed 05 kn.

  YouTube Music Video
 
jpsmedia.com for Web Design  worldairports.se 2018   terms of use